createdAt,value
2022-11-02T00:01:28.578Z,96292.50
2022-11-02T00:03:55.776Z,96290.75
2022-11-02T00:06:22.822Z,96289.47
2022-11-02T00:08:49.854Z,96287.47
2022-11-02T00:11:16.913Z,96298.81
2022-11-02T00:13:44.352Z,96292.56
2022-11-02T00:16:14.594Z,96296.09
2022-11-02T00:18:43.691Z,96286.91
2022-11-02T00:21:11.774Z,96286.47
2022-11-02T00:23:41.281Z,96289.22
2022-11-02T00:26:08.909Z,96296.66
2022-11-02T00:28:36.069Z,96295.81
2022-11-02T00:31:03.244Z,96293.75
2022-11-02T00:33:30.951Z,96300.28
2022-11-02T00:35:58.147Z,96293.06
2022-11-02T00:38:25.247Z,96296.25
2022-11-02T00:40:52.276Z,96290.81
2022-11-02T00:43:19.523Z,96298.19
2022-11-02T00:45:46.582Z,96300.31
2022-11-02T00:48:13.723Z,96304.44
2022-11-02T00:50:41.234Z,96294.50
2022-11-02T00:53:08.810Z,96305.13
2022-11-02T00:55:35.893Z,96301.63
2022-11-02T00:58:04.563Z,96309.66
2022-11-02T01:00:32.183Z,96305.31
2022-11-02T01:03:01.484Z,96301.06
2022-11-02T01:05:29.254Z,96291.66
2022-11-02T01:07:57.035Z,96296.09
2022-11-02T01:10:26.086Z,96292.59
2022-11-02T01:12:53.196Z,96301.66
2022-11-02T01:15:20.286Z,96286.78
2022-11-02T01:17:47.352Z,96293.19
2022-11-02T01:20:14.804Z,96283.41
2022-11-02T01:22:41.953Z,96276.69
2022-11-02T01:25:09.226Z,96277.16
2022-11-02T01:27:36.323Z,96263.84
2022-11-02T01:30:05.470Z,96275.69
2022-11-02T01:32:32.549Z,96274.81
2022-11-02T01:34:59.735Z,96272.50
2022-11-02T01:37:26.755Z,96273.28
2022-11-02T01:39:53.895Z,96265.03
2022-11-02T01:42:23.834Z,96266.59
2022-11-02T01:44:51.206Z,96276.38
2022-11-02T01:47:32.434Z,96274.81
2022-11-02T01:50:13.297Z,96277.16
2022-11-02T01:52:41.313Z,96284.13
2022-11-02T01:55:14.808Z,96282.97
2022-11-02T01:57:45.675Z,96278.66
2022-11-02T02:00:15.148Z,96283.41
2022-11-02T02:03:09.744Z,96288.44
2022-11-02T02:05:57.825Z,96279.47
2022-11-02T02:08:26.821Z,96275.59
2022-11-02T02:10:57.849Z,96282.69
2022-11-02T02:13:28.090Z,96279.56
2022-11-02T02:16:23.744Z,96284.25
2022-11-02T02:18:59.921Z,96289.00
2022-11-02T02:22:12.603Z,96279.94
2022-11-02T02:24:53.934Z,96283.91
2022-11-02T02:27:28.019Z,96281.94
2022-11-02T02:30:11.636Z,96289.03
2022-11-02T02:32:59.365Z,96277.25
2022-11-02T02:35:39.626Z,96294.53
2022-11-02T02:38:25.859Z,96292.97
2022-11-02T02:41:00.882Z,96288.22
2022-11-02T02:43:36.032Z,96289.03
2022-11-02T02:46:19.606Z,96298.34
2022-11-02T02:48:48.945Z,96304.63
2022-11-02T02:51:23.107Z,96301.59
2022-11-02T02:53:59.742Z,96298.34
2022-11-02T02:56:30.892Z,96302.28
2022-11-02T02:59:02.567Z,96294.13
2022-11-02T03:01:30.704Z,96294.53
2022-11-02T03:03:58.618Z,96289.44
2022-11-02T03:06:35.026Z,96293.88
2022-11-02T03:09:42.768Z,96286.88
2022-11-02T03:12:38.064Z,96282.66
2022-11-02T03:15:24.647Z,96295.50
2022-11-02T03:18:24.958Z,96293.28
2022-11-02T03:21:06.961Z,96300.28
2022-11-02T03:23:55.321Z,96296.38
2022-11-02T03:26:25.872Z,96295.50
2022-11-02T03:29:11.150Z,96300.25
2022-11-02T03:31:43.143Z,96300.69
2022-11-02T03:34:32.836Z,96288.97
2022-11-02T03:37:03.303Z,96300.72
2022-11-02T03:39:38.555Z,96297.19
2022-11-02T03:42:09.409Z,96310.47
2022-11-02T03:44:39.159Z,96306.16
2022-11-02T03:47:12.542Z,96311.22
2022-11-02T03:49:42.571Z,96310.91
2022-11-02T03:52:14.722Z,96322.94
2022-11-02T03:55:06.123Z,96311.84
2022-11-02T03:57:42.111Z,96312.72
2022-11-02T04:00:14.534Z,96314.22
2022-11-02T04:02:45.623Z,96314.91
2022-11-02T04:05:14.383Z,96318.91
2022-11-02T04:08:03.954Z,96313.28
2022-11-02T04:10:31.618Z,96318.72
2022-11-02T04:13:28.339Z,96332.00
2022-11-02T04:15:55.595Z,96323.25
2022-11-02T04:18:41.333Z,96332.75
2022-11-02T04:21:08.527Z,96339.00
2022-11-02T04:23:58.966Z,96339.16
2022-11-02T04:26:26.241Z,96348.53
2022-11-02T04:28:53.423Z,96350.09
2022-11-02T04:31:20.715Z,96346.06
2022-11-02T04:33:47.922Z,96350.03
2022-11-02T04:36:17.316Z,96352.25
2022-11-02T04:38:49.859Z,96358.69
2022-11-02T04:41:44.276Z,96362.56
2022-11-02T04:44:29.038Z,96358.63
2022-11-02T04:47:22.595Z,96371.44
2022-11-02T04:49:50.109Z,96362.38
2022-11-02T04:52:19.266Z,96375.63
2022-11-02T04:54:50.214Z,96380.38
2022-11-02T04:57:18.665Z,96375.56
2022-11-02T04:59:45.835Z,96382.72
2022-11-02T05:02:13.955Z,96400.84
2022-11-02T05:04:43.026Z,96393.06
2022-11-02T05:07:11.521Z,96394.63
2022-11-02T05:09:39.134Z,96403.28
2022-11-02T05:12:06.830Z,96385.25
2022-11-02T05:14:35.138Z,96396.31
2022-11-02T05:17:04.172Z,96409.66
2022-11-02T05:19:33.053Z,96408.06
2022-11-02T05:22:01.876Z,96411.25
2022-11-02T05:24:30.293Z,96422.22
2022-11-02T05:26:57.598Z,96416.31
2022-11-02T05:29:26.942Z,96415.72
2022-11-02T05:31:54.294Z,96418.16
2022-11-02T05:34:21.531Z,96418.16
2022-11-02T05:36:49.863Z,96419.94
2022-11-02T05:39:17.186Z,96423.09
2022-11-02T05:41:44.401Z,96427.81
2022-11-02T05:44:11.530Z,96430.56
2022-11-02T05:46:39.919Z,96425.84
2022-11-02T05:49:07.069Z,96427.31
2022-11-02T05:51:34.263Z,96433.94
2022-11-02T05:54:01.487Z,96439.31
2022-11-02T05:56:28.664Z,96432.47
2022-11-02T05:58:55.864Z,96437.13
2022-11-02T06:01:23.131Z,96434.47
2022-11-02T06:03:53.438Z,96437.91
2022-11-02T06:06:27.976Z,96450.53
2022-11-02T06:08:55.183Z,96448.91
2022-11-02T06:11:22.420Z,96451.66
2022-11-02T06:13:51.081Z,96455.19
2022-11-02T06:16:22.743Z,96462.31
2022-11-02T06:18:51.774Z,96458.31
2022-11-02T06:21:19.003Z,96466.91
2022-11-02T06:23:49.686Z,96473.59
2022-11-02T06:26:16.871Z,96467.31
2022-11-02T06:28:44.047Z,96463.06
2022-11-02T06:31:12.320Z,96470.44
2022-11-02T06:33:39.519Z,96470.13
2022-11-02T06:36:08.464Z,96475.56
2022-11-02T06:38:35.657Z,96487.69
2022-11-02T06:41:06.398Z,96493.53
2022-11-02T06:43:36.743Z,96477.97
2022-11-02T06:46:04.743Z,96494.91
2022-11-02T06:48:35.336Z,96500.25
2022-11-02T06:51:04.529Z,96503.75
2022-11-02T06:53:32.371Z,96499.41
2022-11-02T06:56:00.332Z,96509.97
2022-11-02T06:58:27.613Z,96511.13
2022-11-02T07:01:02.574Z,96516.59
2022-11-02T07:03:30.514Z,96520.94
2022-11-02T07:05:57.885Z,96520.38
2022-11-02T07:08:25.622Z,96528.06
2022-11-02T07:10:53.059Z,96537.72
2022-11-02T07:13:20.404Z,96542.91
2022-11-02T07:15:47.502Z,96543.75
2022-11-02T07:18:14.682Z,96550.22
2022-11-02T07:20:41.774Z,96554.25
2022-11-02T07:23:09.984Z,96557.41
2022-11-02T07:25:37.563Z,96561.44
2022-11-02T07:28:05.015Z,96565.75
2022-11-02T07:30:33.541Z,96562.59
2022-11-02T07:33:01.317Z,96576.28
2022-11-02T07:35:28.666Z,96571.25
2022-11-02T07:38:00.818Z,96582.22
2022-11-02T07:40:30.231Z,96585.56
2022-11-02T07:42:59.353Z,96587.19
2022-11-02T07:45:47.052Z,96596.53
2022-11-02T07:48:14.310Z,96591.03
2022-11-02T07:50:41.486Z,96612.38
2022-11-02T07:53:09.850Z,96600.56
2022-11-02T07:55:37.130Z,96606.94
2022-11-02T07:58:09.575Z,96611.41
2022-11-02T08:00:39.412Z,96614.00
2022-11-02T08:03:09.115Z,96619.34
2022-11-02T08:05:39.764Z,96615.94
2022-11-02T08:08:13.135Z,96625.09
2022-11-02T08:10:40.819Z,96622.47
2022-11-02T08:13:10.475Z,96612.38
2022-11-02T08:15:37.791Z,96616.53
2022-11-02T08:18:08.351Z,96603.53
2022-11-02T08:20:36.556Z,96600.34
2022-11-02T08:23:05.381Z,96609.63
2022-11-02T08:25:32.534Z,96619.06
2022-11-02T08:28:01.326Z,96614.81
2022-11-02T08:30:30.193Z,96619.50
2022-11-02T08:33:03.968Z,96621.50
2022-11-02T08:35:31.190Z,96622.97
2022-11-02T08:38:00.005Z,96621.50
2022-11-02T08:40:27.380Z,96621.44
2022-11-02T08:43:07.930Z,96625.72
2022-11-02T08:46:08.381Z,96618.66
2022-11-02T08:48:24.266Z,96625.97
2022-11-02T08:50:51.430Z,96628.88
2022-11-02T08:53:18.648Z,96620.16
2022-11-02T08:55:45.792Z,96613.47
2022-11-02T08:58:12.996Z,96623.88
2022-11-02T09:00:40.138Z,96635.16
2022-11-02T09:03:08.137Z,96635.09
2022-11-02T09:05:37.980Z,96634.00
2022-11-02T09:08:08.614Z,96626.13
2022-11-02T09:10:36.937Z,96626.38
2022-11-02T09:13:06.417Z,96634.41
2022-11-02T09:15:36.139Z,96641.38
2022-11-02T09:18:04.923Z,96636.00
2022-11-02T09:20:33.283Z,96634.31
2022-11-02T09:23:00.423Z,96637.47
2022-11-02T09:25:27.651Z,96633.44
2022-11-02T09:27:56.382Z,96633.16
2022-11-02T09:30:25.456Z,96643.41
2022-11-02T09:33:00.208Z,96644.22
2022-11-02T09:35:29.752Z,96640.97
2022-11-02T09:37:57.180Z,96643.59
2022-11-02T09:40:26.926Z,96649.81
2022-11-02T09:43:32.425Z,96652.06
2022-11-02T09:46:27.029Z,96662.22
2022-11-02T09:48:58.042Z,96657.31
2022-11-02T09:51:53.167Z,96653.09
2022-11-02T09:54:27.636Z,96655.41
2022-11-02T09:56:59.647Z,96649.41
2022-11-02T09:59:27.530Z,96639.25
2022-11-02T10:02:05.361Z,96650.53
2022-11-02T10:05:03.399Z,96642.59
2022-11-02T10:08:01.616Z,96644.50
2022-11-02T10:10:31.716Z,96650.69
2022-11-02T10:13:07.276Z,96646.25
2022-11-02T10:15:52.592Z,96647.13
2022-11-02T10:18:25.123Z,96646.38
2022-11-02T10:20:58.772Z,96650.53
2022-11-02T10:23:34.335Z,96647.13
2022-11-02T10:26:02.624Z,96660.34
2022-11-02T10:28:39.614Z,96651.28
2022-11-02T10:31:23.580Z,96661.78
2022-11-02T10:33:52.906Z,96672.13
2022-11-02T10:36:54.003Z,96662.28
2022-11-02T10:39:32.908Z,96664.28
2022-11-02T10:42:33.601Z,96663.78
2022-11-02T10:45:38.098Z,96664.72
2022-11-02T10:48:23.779Z,96656.59
2022-11-02T10:51:07.371Z,96665.16
2022-11-02T10:53:46.275Z,96665.16
2022-11-02T10:56:32.782Z,96660.28
2022-11-02T10:59:00.440Z,96658.91
2022-11-02T11:01:29.807Z,96662.56
2022-11-02T11:04:01.363Z,96664.28
2022-11-02T11:06:37.683Z,96668.28
2022-11-02T11:09:17.350Z,96661.53
2022-11-02T11:11:53.411Z,96661.41
2022-11-02T11:20:29.599Z,96663.88
2022-11-02T11:23:15.481Z,96662.06
2022-11-02T11:25:46.677Z,96665.19
2022-11-02T11:28:26.650Z,96673.66
2022-11-02T11:31:17.449Z,96673.34
2022-11-02T11:33:55.890Z,96664.09
2022-11-02T11:36:35.681Z,96666.06
2022-11-02T11:39:06.879Z,96667.13
2022-11-02T11:41:38.766Z,96669.13
2022-11-02T11:44:13.214Z,96655.09
2022-11-02T11:46:43.817Z,96649.47
2022-11-02T11:52:30.017Z,96657.28
2022-11-02T11:55:00.823Z,96651.97
2022-11-02T11:57:29.313Z,96650.84
2022-11-02T11:59:59.747Z,96647.31
2022-11-02T12:02:30.851Z,96641.63
2022-11-02T12:05:15.403Z,96641.88
2022-11-02T12:08:04.350Z,96639.16
2022-11-02T12:10:37.426Z,96622.47
2022-11-02T12:13:28.767Z,96632.56
2022-11-02T12:16:14.500Z,96618.78
2022-11-02T12:19:12.313Z,96619.72
2022-11-02T12:22:06.074Z,96623.59
2022-11-02T12:24:59.067Z,96615.34
2022-11-02T12:27:54.071Z,96608.91
2022-11-02T12:30:51.214Z,96609.88
2022-11-02T12:33:33.468Z,96607.56
2022-11-02T12:36:28.845Z,96601.25
2022-11-02T12:38:55.908Z,96611.38
2022-11-02T12:41:29.480Z,96611.41
2022-11-02T12:44:28.092Z,96600.16
2022-11-02T12:47:03.863Z,96594.28
2022-11-02T12:49:48.778Z,96605.22
2022-11-02T12:52:43.549Z,96605.63
2022-11-02T12:55:21.283Z,96602.50
2022-11-02T12:57:49.407Z,96602.91
2022-11-02T13:00:23.206Z,96597.84
2022-11-02T13:03:02.406Z,96600.19
2022-11-02T13:05:35.409Z,96598.25
2022-11-02T13:08:06.889Z,96599.06
2022-11-02T13:10:53.154Z,96607.69
2022-11-02T13:13:29.794Z,96599.03
2022-11-02T13:15:57.609Z,96601.38
2022-11-02T13:18:30.073Z,96589.94
2022-11-02T13:21:00.783Z,96585.63
2022-11-02T13:23:33.770Z,96589.44
2022-11-02T13:26:06.457Z,96584.72
2022-11-02T13:28:47.508Z,96586.41
2022-11-02T13:31:21.075Z,96586.19
2022-11-02T13:33:51.926Z,96582.88
2022-11-02T13:36:19.342Z,96575.31
2022-11-02T13:38:55.662Z,96579.47
2022-11-02T13:41:41.225Z,96576.00
2022-11-02T13:44:22.525Z,96578.31
2022-11-02T13:47:11.265Z,96568.09
2022-11-02T13:49:45.178Z,96571.97
2022-11-02T13:52:18.107Z,96569.78
2022-11-02T13:54:53.752Z,96564.59
2022-11-02T13:57:30.226Z,96571.28
2022-11-02T13:59:57.565Z,96557.09
2022-11-02T14:02:28.792Z,96559.78
2022-11-02T14:04:55.992Z,96565.09
2022-11-02T14:07:29.931Z,96558.78
2022-11-02T14:10:13.839Z,96567.38
2022-11-02T14:12:48.891Z,96560.53
2022-11-02T14:15:16.009Z,96556.38
2022-11-02T14:17:55.183Z,96555.63
2022-11-02T14:20:49.000Z,96546.97
2022-11-02T14:23:18.426Z,96544.53
2022-11-02T14:25:45.516Z,96543.00
2022-11-02T14:28:21.634Z,96542.22
2022-11-02T14:30:56.902Z,96542.06
2022-11-02T14:33:55.172Z,96538.56
2022-11-02T14:36:30.741Z,96534.06
2022-11-02T14:39:15.093Z,96540.59
2022-11-02T14:41:44.967Z,96543.00
2022-11-02T14:44:27.310Z,96536.56
2022-11-02T14:47:07.821Z,96531.16
2022-11-02T14:49:47.397Z,96534.31
2022-11-02T14:52:14.516Z,96535.09
2022-11-02T14:55:22.686Z,96531.53
2022-11-02T14:58:17.038Z,96525.34
2022-11-02T15:00:46.975Z,96533.03
2022-11-02T15:03:31.918Z,96532.13
2022-11-02T15:06:17.452Z,96523.91
2022-11-02T15:08:57.483Z,96534.97
2022-11-02T15:11:45.570Z,96523.69
2022-11-02T15:14:37.936Z,96530.84
2022-11-02T15:17:28.106Z,96519.59
2022-11-02T15:19:58.094Z,96520.09
2022-11-02T15:22:31.190Z,96515.22
2022-11-02T15:25:04.147Z,96504.81
2022-11-02T15:27:32.247Z,96512.19
2022-11-02T15:30:00.557Z,96501.63
2022-11-02T15:32:32.718Z,96510.47
2022-11-02T15:35:00.355Z,96507.13
2022-11-02T15:37:37.303Z,96505.16
2022-11-02T15:40:28.609Z,96508.31
2022-11-02T15:43:06.570Z,96509.81
2022-11-02T15:45:49.501Z,96501.84
2022-11-02T15:48:40.031Z,96502.34
2022-11-02T15:51:19.694Z,96498.34
2022-11-02T15:54:00.978Z,96511.53
2022-11-02T15:56:55.078Z,96492.66
2022-11-02T15:59:37.128Z,96487.00
2022-11-02T16:02:36.778Z,96496.44
2022-11-02T16:05:06.115Z,96487.16
2022-11-02T16:07:50.249Z,96485.94
2022-11-02T16:10:31.594Z,96475.16
2022-11-02T16:13:12.627Z,96477.56
2022-11-02T16:15:43.612Z,96479.31
2022-11-02T16:18:31.162Z,96478.56
2022-11-02T16:21:02.136Z,96470.88
2022-11-02T16:23:32.817Z,96470.94
2022-11-02T16:26:02.911Z,96475.13
2022-11-02T16:28:37.459Z,96462.53
2022-11-02T16:31:17.806Z,96458.53
2022-11-02T16:33:54.242Z,96458.13
2022-11-02T16:36:27.196Z,96472.31
2022-11-02T16:38:59.679Z,96472.72
2022-11-02T16:41:31.952Z,96463.34
2022-11-02T16:44:07.427Z,96462.91
2022-11-02T16:46:54.901Z,96474.91
2022-11-02T16:49:24.157Z,96472.06
2022-11-02T16:51:56.724Z,96478.19
2022-11-02T16:54:34.343Z,96477.13
2022-11-02T16:57:13.603Z,96477.69
2022-11-02T16:59:56.041Z,96478.53
2022-11-02T17:02:37.549Z,96477.34
2022-11-02T17:05:07.295Z,96476.78
2022-11-02T17:07:42.002Z,96481.88
2022-11-02T17:10:19.954Z,96479.81
2022-11-02T17:12:48.679Z,96478.16
2022-11-02T17:15:22.145Z,96473.28
2022-11-02T17:17:50.190Z,96481.72
2022-11-02T17:20:22.752Z,96470.81
2022-11-02T17:23:28.620Z,96475.28
2022-11-02T17:26:21.904Z,96470.44
2022-11-02T17:28:51.613Z,96474.56
2022-11-02T17:31:28.490Z,96476.34
2022-11-02T17:34:00.184Z,96475.97
2022-11-02T17:36:28.382Z,96483.13
2022-11-02T17:38:59.098Z,96480.59
2022-11-02T17:41:55.691Z,96483.00
2022-11-02T17:44:22.871Z,96487.50
2022-11-02T17:46:50.198Z,96466.56
2022-11-02T17:49:17.381Z,96468.59
2022-11-02T17:51:44.549Z,96471.91
2022-11-02T17:54:14.890Z,96455.75
2022-11-02T17:56:42.240Z,96462.63
2022-11-02T17:59:09.687Z,96449.25
2022-11-02T18:01:37.085Z,96449.94
2022-11-02T18:04:04.378Z,96448.53
2022-11-02T18:06:31.610Z,96447.03
2022-11-02T18:09:10.969Z,96452.53
2022-11-02T18:11:38.153Z,96447.81
2022-11-02T18:14:05.577Z,96447.81
2022-11-02T18:16:32.852Z,96438.59
2022-11-02T18:18:59.971Z,96444.06
2022-11-02T18:21:27.116Z,96436.84
2022-11-02T18:23:54.253Z,96441.72
2022-11-02T18:26:21.424Z,96444.44
2022-11-02T18:28:48.551Z,96442.63
2022-11-02T18:31:15.737Z,96441.41
2022-11-02T18:33:43.606Z,96436.41
2022-11-02T18:36:11.447Z,96431.09
2022-11-02T18:38:38.609Z,96430.97
2022-11-02T18:41:27.057Z,96429.75
2022-11-02T18:44:00.540Z,96436.81
2022-11-02T18:46:32.036Z,96431.59
2022-11-02T18:48:59.666Z,96429.78
2022-11-02T18:51:26.972Z,96424.13
2022-11-02T18:53:59.835Z,96419.41
2022-11-02T18:56:27.151Z,96420.69
2022-11-02T18:58:55.323Z,96419.28
2022-11-02T19:01:24.405Z,96419.53
2022-11-02T19:03:56.861Z,96418.22
2022-11-02T19:06:43.032Z,96406.78
2022-11-02T19:09:21.369Z,96398.13
2022-11-02T19:12:00.744Z,96397.41
2022-11-02T19:14:30.120Z,96397.41
2022-11-02T19:16:57.293Z,96401.00
2022-11-02T19:19:24.445Z,96386.09
2022-11-02T19:21:51.683Z,96388.59
2022-11-02T19:24:20.962Z,96384.25
2022-11-02T19:26:48.366Z,96384.06
2022-11-02T19:29:16.662Z,96378.25
2022-11-02T19:31:44.143Z,96378.06
2022-11-02T19:34:11.366Z,96377.78
2022-11-02T19:36:38.821Z,96367.13
2022-11-02T19:39:08.893Z,96364.00
2022-11-02T19:41:38.601Z,96367.25
2022-11-02T19:44:06.562Z,96367.59
2022-11-02T19:46:34.296Z,96370.13
2022-11-02T19:49:01.598Z,96365.88
2022-11-02T19:51:30.105Z,96353.84
2022-11-02T19:53:59.825Z,96361.34
2022-11-02T19:56:29.197Z,96364.41
2022-11-02T19:58:57.300Z,96363.56
2022-11-02T20:01:29.668Z,96366.75
2022-11-02T20:03:57.523Z,96367.47
2022-11-02T20:06:27.848Z,96357.97
2022-11-02T20:08:57.091Z,96358.66
2022-11-02T20:11:28.988Z,96353.13
2022-11-02T20:13:58.296Z,96349.94
2022-11-02T20:16:25.755Z,96358.88
2022-11-02T20:18:54.214Z,96343.34
2022-11-02T20:21:31.644Z,96342.06
2022-11-02T20:24:00.959Z,96340.66
2022-11-02T20:26:33.813Z,96335.38
2022-11-02T20:29:02.429Z,96331.06
2022-11-02T20:31:38.123Z,96334.84
2022-11-02T20:34:08.262Z,96338.56
2022-11-02T20:36:35.632Z,96337.38
2022-11-02T20:39:04.869Z,96338.16
2022-11-02T20:41:32.446Z,96328.38
2022-11-02T20:43:59.715Z,96326.00
2022-11-02T20:46:39.107Z,96324.13
2022-11-02T20:49:21.274Z,96324.53
2022-11-02T20:51:51.279Z,96327.16
2022-11-02T20:54:19.855Z,96325.03
2022-11-02T20:56:48.416Z,96319.44
2022-11-02T20:59:15.767Z,96303.56
2022-11-02T21:01:43.096Z,96304.22
2022-11-02T21:04:12.864Z,96305.84
2022-11-02T21:06:45.589Z,96301.59
2022-11-02T21:09:12.803Z,96309.44
2022-11-02T21:11:58.387Z,96305.56
2022-11-02T21:14:25.542Z,96312.81
2022-11-02T21:16:52.719Z,96313.47
2022-11-02T21:19:19.882Z,96305.25
2022-11-02T21:21:47.074Z,96317.13
2022-11-02T21:24:14.221Z,96306.41
2022-11-02T21:26:41.298Z,96306.25
2022-11-02T21:29:09.366Z,96301.44
2022-11-02T21:31:36.880Z,96299.72
2022-11-02T21:34:04.270Z,96293.84
2022-11-02T21:36:31.455Z,96296.81
2022-11-02T21:38:58.799Z,96286.97
2022-11-02T21:41:28.718Z,96287.19
2022-11-02T21:43:56.278Z,96282.50
2022-11-02T21:46:25.446Z,96287.66
2022-11-02T21:48:52.731Z,96289.97
2022-11-02T21:51:21.138Z,96289.47
2022-11-02T21:53:50.119Z,96290.28
2022-11-02T21:56:19.966Z,96286.91
2022-11-02T21:58:51.468Z,96290.19
2022-11-02T22:01:42.157Z,96279.16
2022-11-02T22:04:10.598Z,96275.97
2022-11-02T22:06:38.601Z,96277.59
2022-11-02T22:09:08.068Z,96272.34
2022-11-02T22:11:35.387Z,96259.72
2022-11-02T22:14:02.766Z,96259.16
2022-11-02T22:16:37.950Z,96263.63
2022-11-02T22:19:10.334Z,96249.50
2022-11-02T22:21:40.575Z,96244.47
2022-11-02T22:24:08.333Z,96249.63
2022-11-02T22:26:36.914Z,96259.00
2022-11-02T22:29:04.746Z,96270.00
2022-11-02T22:31:34.869Z,96276.19
2022-11-02T22:34:03.979Z,96272.16
2022-11-02T22:36:33.259Z,96264.38
2022-11-02T22:39:02.155Z,96265.00
2022-11-02T22:41:34.241Z,96265.44
2022-11-02T22:44:07.141Z,96263.78
2022-11-02T22:46:37.745Z,96260.03
2022-11-02T22:49:06.017Z,96258.63
2022-11-02T22:51:36.461Z,96257.28
2022-11-02T22:54:06.013Z,96251.53
2022-11-02T22:56:33.457Z,96251.38
2022-11-02T22:59:00.655Z,96254.72
2022-11-02T23:01:29.783Z,96243.16
2022-11-02T23:03:57.813Z,96243.78
2022-11-02T23:06:25.664Z,96245.53
2022-11-02T23:08:54.767Z,96236.91
2022-11-02T23:11:25.088Z,96226.47
2022-11-02T23:13:52.286Z,96234.94
2022-11-02T23:16:21.270Z,96216.00
2022-11-02T23:19:29.343Z,96222.78
2022-11-02T23:22:26.529Z,96214.88
2022-11-02T23:25:12.959Z,96216.56
2022-11-02T23:28:01.228Z,96209.41
2022-11-02T23:30:55.208Z,96213.41
2022-11-02T23:33:24.588Z,96211.22
2022-11-02T23:36:10.323Z,96207.63
2022-11-02T23:39:00.334Z,96213.34
2022-11-02T23:41:29.072Z,96210.47
2022-11-02T23:44:11.830Z,96213.59
2022-11-02T23:46:50.604Z,96208.81
2022-11-02T23:49:18.289Z,96205.00
2022-11-02T23:52:04.222Z,96209.75
2022-11-02T23:54:50.174Z,96201.94
2022-11-02T23:57:18.625Z,96203.03
2022-11-02T23:59:45.743Z,96195.06
